Time;durP1;ratioP1;P1;durP2;ratioP2;P2;SDS_P1;SDS_P2;PMS_P1;PMS_P2;Temp;Humidity;BMP_temperature;BMP_pressure;BME280_temperature;BME280_humidity;BME280_pressure;Samples;Min_cycle;Max_cycle;Signal;HPM_P1;HPM_P2
2021/11/13 00:01:09;;;;;;;26.33;14.30;;;3.10;99.90;;;;;;5091394;28;20296;-76
2021/11/13 00:03:36;;;;;;;24.48;13.95;;;3.20;99.90;;;;;;5086276;28;20201;-77
2021/11/13 00:06:03;;;;;;;22.25;13.13;;;3.30;99.90;;;;;;5071060;28;20215;-76
2021/11/13 00:08:30;;;;;;;23.23;13.50;;;3.20;99.90;;;;;;5092918;22;20223;-78
2021/11/13 00:10:57;;;;;;;28.08;14.15;;;3.20;99.90;;;;;;5069663;28;20222;-77
2021/11/13 00:13:25;;;;;;;25.55;14.70;;;3.30;99.90;;;;;;5050722;28;20767;-79
2021/11/13 00:15:53;;;;;;;24.00;12.52;;;3.30;99.90;;;;;;5061431;28;20216;-78
2021/11/13 00:18:20;;;;;;;25.70;14.60;;;3.30;99.90;;;;;;5086595;28;20310;-78
2021/11/13 00:20:48;;;;;;;25.02;14.32;;;3.30;99.90;;;;;;5071295;28;20215;-78
2021/11/13 00:23:16;;;;;;;26.45;13.35;;;3.30;99.90;;;;;;5071294;28;20552;-78
2021/11/13 00:25:43;;;;;;;26.05;14.50;;;3.20;99.90;;;;;;5070243;28;20203;-78
2021/11/13 00:28:09;;;;;;;22.58;13.02;;;3.20;99.90;;;;;;5053960;28;20230;-78
2021/11/13 00:30:41;;;;;;;22.27;13.95;;;3.20;99.90;;;;;;5050431;28;20574;-78
2021/11/13 00:33:09;;;;;;;24.17;13.20;;;3.20;99.90;;;;;;5068576;28;20621;-78
2021/11/13 00:35:35;;;;;;;23.02;12.65;;;3.20;99.90;;;;;;5073198;28;20232;-78
2021/11/13 00:38:03;;;;;;;24.08;12.85;;;3.10;99.90;;;;;;5076707;28;20270;-77
2021/11/13 00:40:30;;;;;;;22.60;12.10;;;3.20;99.90;;;;;;5085242;28;20279;-77
2021/11/13 00:42:57;;;;;;;20.27;12.82;;;3.20;99.90;;;;;;5058423;28;20200;-78
2021/11/13 00:45:24;;;;;;;18.70;12.38;;;3.30;99.90;;;;;;5051682;28;20216;-77
2021/11/13 00:47:52;;;;;;;21.50;13.30;;;3.30;99.90;;;;;;5069946;28;20262;-77
2021/11/13 00:50:19;;;;;;;23.90;12.85;;;3.30;99.90;;;;;;5071347;28;20667;-78
2021/11/13 00:52:47;;;;;;;18.88;12.70;;;3.30;99.90;;;;;;5065404;28;20334;-78
2021/11/13 00:55:18;;;;;;;21.77;13.05;;;3.30;99.90;;;;;;5052218;28;20227;-77
2021/11/13 00:57:45;;;;;;;24.88;13.57;;;3.30;99.90;;;;;;5053834;28;20206;-77
2021/11/13 01:00:17;;;;;;;21.75;12.57;;;3.30;99.90;;;;;;5050154;28;20293;-77
2021/11/13 01:02:44;;;;;;;21.52;11.90;;;3.40;99.90;;;;;;5049411;28;20238;-77
2021/11/13 01:05:12;;;;;;;21.33;11.68;;;3.40;99.90;;;;;;5049353;28;20234;-77
2021/11/13 01:07:39;;;;;;;22.42;13.05;;;3.40;99.90;;;;;;5042746;28;20210;-77
2021/11/13 01:10:08;;;;;;;23.05;12.93;;;3.40;99.90;;;;;;5054722;28;20209;-77
2021/11/13 01:12:36;;;;;;;18.92;12.48;;;3.40;99.90;;;;;;5047057;28;20196;-77
2021/11/13 01:15:05;;;;;;;22.33;12.93;;;3.40;99.90;;;;;;5035108;28;20226;-77
2021/11/13 01:17:32;;;;;;;23.55;13.00;;;3.40;99.90;;;;;;5040817;28;20201;-78
2021/11/13 01:19:59;;;;;;;23.38;12.75;;;3.40;99.90;;;;;;5052742;28;20245;-77
2021/11/13 01:22:27;;;;;;;21.17;12.55;;;3.30;99.90;;;;;;5036246;28;20308;-78
2021/11/13 01:24:54;;;;;;;25.88;14.52;;;3.30;99.90;;;;;;5037539;28;20412;-79
2021/11/13 01:27:21;;;;;;;20.77;12.65;;;3.30;99.90;;;;;;5034717;28;20231;-79
2021/11/13 01:29:48;;;;;;;24.60;14.25;;;3.40;99.90;;;;;;5034982;28;20234;-78
2021/11/13 01:32:16;;;;;;;22.80;12.80;;;3.40;99.90;;;;;;5055201;28;20205;-78
2021/11/13 01:34:42;;;;;;;21.98;13.52;;;3.40;99.90;;;;;;5054840;28;20279;-78
2021/11/13 01:37:10;;;;;;;22.00;12.70;;;3.40;99.90;;;;;;5054600;28;20218;-78
2021/11/13 01:39:38;;;;;;;24.38;13.15;;;3.40;99.90;;;;;;5056320;28;20318;-77
2021/11/13 01:42:06;;;;;;;23.27;13.60;;;3.50;99.90;;;;;;5037513;28;20692;-78
2021/11/13 01:44:34;;;;;;;25.90;13.45;;;3.40;99.90;;;;;;5040379;28;20323;-77
2021/11/13 01:47:02;;;;;;;24.58;14.18;;;3.40;99.90;;;;;;5048405;28;20257;-78
2021/11/13 01:49:29;;;;;;;24.00;12.48;;;3.50;99.90;;;;;;5050691;28;20223;-76
2021/11/13 01:51:55;;;;;;;27.27;12.90;;;3.50;99.90;;;;;;5058131;28;20212;-78
2021/11/13 01:54:23;;;;;;;24.17;13.05;;;3.50;99.90;;;;;;5044117;28;20289;-79
2021/11/13 01:56:52;;;;;;;23.98;12.93;;;3.50;99.90;;;;;;5038902;28;20205;-78
2021/11/13 01:59:21;;;;;;;22.90;13.75;;;3.40;99.90;;;;;;5052684;28;20230;-78
2021/11/13 02:01:49;;;;;;;22.50;12.35;;;3.40;99.90;;;;;;5060886;28;20272;-77
2021/11/13 02:04:16;;;;;;;22.48;12.75;;;3.40;99.90;;;;;;5053002;28;20281;-77
2021/11/13 02:06:43;;;;;;;25.15;13.40;;;3.40;99.90;;;;;;5047813;28;20213;-77
2021/11/13 02:09:10;;;;;;;18.63;12.35;;;3.40;99.90;;;;;;5061222;28;20230;-77
2021/11/13 02:11:37;;;;;;;20.88;12.50;;;3.40;99.90;;;;;;5074164;28;20226;-76
2021/11/13 02:14:06;;;;;;;22.30;13.57;;;3.40;99.90;;;;;;5064732;28;20266;-78
2021/11/13 02:16:33;;;;;;;18.75;11.57;;;3.40;99.90;;;;;;5043693;28;20231;-77
2021/11/13 02:19:01;;;;;;;21.85;12.82;;;3.40;99.90;;;;;;5040103;28;20317;-77
2021/11/13 02:21:29;;;;;;;25.27;13.02;;;3.50;99.90;;;;;;5049313;28;20224;-77
2021/11/13 02:23:57;;;;;;;20.88;12.77;;;3.50;99.90;;;;;;5056850;28;20197;-77
2021/11/13 02:26:25;;;;;;;26.30;14.23;;;3.50;99.90;;;;;;5056941;28;20194;-77
2021/11/13 02:28:54;;;;;;;20.65;12.48;;;3.50;99.90;;;;;;5061534;28;20196;-77
2021/11/13 02:31:31;;;;;;;22.77;13.57;;;3.50;99.90;;;;;;5076159;28;20193;-77
2021/11/13 02:33:58;;;;;;;22.42;12.65;;;3.50;99.90;;;;;;5067351;28;20177;-77
2021/11/13 02:36:25;;;;;;;19.73;12.80;;;3.50;99.90;;;;;;5055865;28;20247;-76
2021/11/13 02:38:56;;;;;;;29.60;14.10;;;3.50;99.90;;;;;;5059639;28;20208;-80
2021/11/13 02:41:26;;;;;;;22.25;11.95;;;3.50;99.90;;;;;;5073204;28;20212;-80
2021/11/13 02:43:54;;;;;;;21.98;12.25;;;3.50;99.90;;;;;;5054022;28;20236;-79
2021/11/13 02:46:21;;;;;;;19.98;11.32;;;3.40;99.90;;;;;;5055433;28;20207;-80
2021/11/13 02:48:49;;;;;;;20.80;12.43;;;3.40;99.90;;;;;;5055836;28;20225;-81
2021/11/13 02:51:16;;;;;;;19.80;11.45;;;3.40;99.90;;;;;;5055812;28;20206;-80
2021/11/13 02:53:44;;;;;;;19.92;12.43;;;3.40;99.90;;;;;;5075468;28;20211;-80
2021/11/13 02:56:22;;;;;;;22.58;12.15;;;3.40;99.90;;;;;;5073536;28;20217;-79
2021/11/13 02:58:49;;;;;;;20.63;13.02;;;3.50;99.90;;;;;;5034267;28;20276;-79
2021/11/13 03:01:18;;;;;;;20.40;11.20;;;3.40;99.90;;;;;;5034868;28;20329;-80
2021/11/13 03:03:48;;;;;;;20.35;11.00;;;3.40;99.90;;;;;;5053626;28;20194;-81
2021/11/13 03:06:16;;;;;;;21.60;12.32;;;3.50;99.90;;;;;;5054333;28;20294;-81
2021/11/13 03:08:45;;;;;;;18.73;12.07;;;3.50;99.90;;;;;;5052986;28;20269;-80
2021/11/13 03:11:14;;;;;;;18.45;11.65;;;3.50;99.90;;;;;;5054435;28;20254;-79
2021/11/13 03:13:44;;;;;;;19.90;12.13;;;3.40;99.90;;;;;;5053847;28;20201;-79
2021/11/13 03:16:12;;;;;;;20.05;12.10;;;3.40;99.90;;;;;;5054145;28;20263;-81
2021/11/13 03:18:39;;;;;;;17.80;11.73;;;3.50;99.90;;;;;;5069799;28;20209;-77
2021/11/13 03:21:08;;;;;;;20.77;12.15;;;3.50;99.90;;;;;;5058608;28;20260;-79
2021/11/13 03:23:36;;;;;;;19.20;12.32;;;3.40;99.90;;;;;;5041387;28;20218;-78
2021/11/13 03:26:06;;;;;;;17.63;10.98;;;3.40;99.90;;;;;;5034327;28;20535;-78
2021/11/13 03:28:37;;;;;;;19.00;11.25;;;3.40;99.90;;;;;;5032455;28;20595;-78
2021/11/13 03:31:07;;;;;;;19.02;10.85;;;3.40;99.90;;;;;;5045163;28;20308;-79
2021/11/13 03:33:38;;;;;;;16.20;10.40;;;3.50;99.90;;;;;;5052793;28;20213;-78
2021/11/13 03:36:06;;;;;;;13.68;9.77;;;3.40;99.90;;;;;;5039000;28;20218;-78
2021/11/13 03:38:34;;;;;;;18.58;10.25;;;3.40;99.90;;;;;;5032239;28;20240;-78
2021/11/13 03:41:01;;;;;;;19.50;10.88;;;3.30;99.90;;;;;;5043573;28;20235;-78
2021/11/13 03:43:29;;;;;;;17.30;10.40;;;3.30;99.90;;;;;;5051995;28;20571;-78
2021/11/13 03:45:55;;;;;;;15.82;10.95;;;3.30;99.90;;;;;;5052012;28;20243;-78
2021/11/13 03:48:24;;;;;;;17.48;10.63;;;3.30;99.90;;;;;;5052570;28;20251;-78
2021/11/13 03:50:51;;;;;;;17.95;10.38;;;3.30;99.90;;;;;;5042253;28;20232;-78
2021/11/13 03:53:17;;;;;;;17.25;9.77;;;3.30;99.90;;;;;;5032470;28;20769;-78
2021/11/13 03:55:44;;;;;;;16.92;9.93;;;3.20;99.90;;;;;;5032549;28;20229;-78
2021/11/13 03:58:11;;;;;;;15.65;10.07;;;3.30;99.90;;;;;;5031850;28;20721;-78
2021/11/13 04:00:38;;;;;;;13.73;9.70;;;3.30;99.90;;;;;;5032926;28;20692;-78
2021/11/13 04:03:05;;;;;;;16.50;10.48;;;3.30;99.90;;;;;;5032990;28;20205;-78
2021/11/13 04:05:34;;;;;;;13.98;9.93;;;3.30;99.90;;;;;;5038979;28;20264;-79
2021/11/13 04:08:03;;;;;;;13.93;9.77;;;3.40;99.90;;;;;;5064003;28;20240;-78
2021/11/13 04:10:30;;;;;;;16.58;10.95;;;3.40;99.90;;;;;;5051522;28;20296;-78
2021/11/13 04:12:57;;;;;;;18.70;10.35;;;3.30;99.90;;;;;;5039634;28;20204;-79
2021/11/13 04:15:24;;;;;;;14.48;10.10;;;3.30;99.90;;;;;;5035082;28;20561;-77
2021/11/13 04:17:51;;;;;;;17.70;10.60;;;3.30;99.90;;;;;;5052141;28;20251;-79
2021/11/13 04:20:20;;;;;;;16.98;10.00;;;3.30;99.90;;;;;;5049764;28;20648;-77
2021/11/13 04:22:50;;;;;;;15.82;10.63;;;3.30;99.90;;;;;;5033417;28;20216;-77
2021/11/13 04:25:17;;;;;;;17.25;10.77;;;3.40;99.90;;;;;;5035225;28;20214;-77
2021/11/13 04:27:44;;;;;;;20.05;12.38;;;3.40;99.90;;;;;;5032183;28;20218;-78
2021/11/13 04:30:13;;;;;;;19.70;11.38;;;3.40;99.90;;;;;;5033254;28;20308;-77
2021/11/13 04:32:42;;;;;;;15.80;10.85;;;3.50;99.90;;;;;;5032187;28;20274;-77
2021/11/13 04:35:18;;;;;;;17.27;10.75;;;3.40;99.90;;;;;;5032219;28;20247;-77
2021/11/13 04:37:48;;;;;;;17.80;10.63;;;3.40;99.90;;;;;;5032553;28;20227;-77
2021/11/13 04:40:16;;;;;;;18.00;10.93;;;3.30;99.90;;;;;;5038805;28;20525;-77
2021/11/13 04:42:43;;;;;;;15.85;11.13;;;3.40;99.90;;;;;;5041359;28;20227;-78
2021/11/13 04:45:10;;;;;;;17.77;10.38;;;3.40;99.90;;;;;;5055141;28;20307;-77
2021/11/13 04:47:37;;;;;;;18.08;10.52;;;3.40;99.90;;;;;;5049560;28;20278;-77
2021/11/13 04:50:07;;;;;;;15.13;9.90;;;3.30;99.90;;;;;;5035794;28;20237;-78
2021/11/13 04:52:34;;;;;;;17.60;11.18;;;3.30;99.90;;;;;;5035542;28;20282;-78
2021/11/13 04:55:03;;;;;;;14.93;10.05;;;3.30;99.90;;;;;;5036249;28;20213;-78
2021/11/13 04:57:30;;;;;;;16.52;11.55;;;3.30;99.90;;;;;;5055205;28;20232;-78
2021/11/13 04:59:57;;;;;;;18.77;10.98;;;3.30;99.90;;;;;;5054565;28;20219;-78
2021/11/13 05:02:24;;;;;;;16.55;11.48;;;3.40;99.90;;;;;;5055363;28;20208;-78
2021/11/13 05:04:54;;;;;;;17.27;10.60;;;3.40;99.90;;;;;;5055809;28;20212;-78
2021/11/13 05:07:22;;;;;;;18.77;12.38;;;3.40;99.90;;;;;;5055774;28;20614;-79
2021/11/13 05:09:49;;;;;;;19.15;11.98;;;3.40;99.90;;;;;;5055367;28;20245;-80
2021/11/13 05:12:18;;;;;;;18.67;11.25;;;3.30;99.90;;;;;;5042370;28;20231;-79
2021/11/13 05:14:45;;;;;;;19.17;11.95;;;3.40;99.90;;;;;;5057155;28;20298;-78
2021/11/13 05:17:12;;;;;;;16.73;10.98;;;3.30;99.90;;;;;;5057925;28;20222;-78
2021/11/13 05:19:38;;;;;;;19.15;12.07;;;3.30;99.90;;;;;;5060067;28;20257;-78
2021/11/13 05:22:06;;;;;;;15.25;11.48;;;3.40;99.90;;;;;;5062708;28;20213;-77
2021/11/13 05:24:34;;;;;;;22.00;12.05;;;3.40;99.90;;;;;;5073207;28;20275;-78
2021/11/13 05:27:01;;;;;;;20.67;11.50;;;3.30;99.90;;;;;;5075831;28;20224;-79
2021/11/13 05:29:29;;;;;;;21.95;12.63;;;3.30;99.90;;;;;;5074342;28;20237;-78
2021/11/13 05:31:56;;;;;;;23.05;13.00;;;3.30;99.90;;;;;;5056224;28;20273;-79
2021/11/13 05:34:23;;;;;;;21.83;11.98;;;3.30;99.90;;;;;;5047101;28;20236;-78
2021/11/13 05:36:50;;;;;;;17.15;11.52;;;3.30;99.90;;;;;;5037581;28;20315;-78
2021/11/13 05:39:17;;;;;;;19.63;11.48;;;3.40;99.90;;;;;;5036800;28;20237;-79
2021/11/13 05:41:43;;;;;;;17.48;11.25;;;3.30;99.90;;;;;;5046858;28;20208;-78
2021/11/13 05:44:10;;;;;;;18.25;11.32;;;3.30;99.90;;;;;;5055043;28;20216;-78
2021/11/13 05:46:38;;;;;;;18.58;11.82;;;3.40;99.90;;;;;;5039609;28;20708;-79
2021/11/13 05:49:05;;;;;;;18.58;11.90;;;3.40;99.90;;;;;;5035180;28;20694;-78
2021/11/13 05:51:32;;;;;;;21.58;11.23;;;3.40;99.90;;;;;;5049530;28;20201;-78
2021/11/13 05:53:59;;;;;;;19.92;12.20;;;3.40;99.90;;;;;;5055249;28;20630;-78
2021/11/13 05:56:26;;;;;;;17.40;10.95;;;3.40;99.90;;;;;;5043144;28;20241;-79
2021/11/13 05:58:53;;;;;;;20.52;11.75;;;3.40;99.90;;;;;;5036307;28;20305;-78
2021/11/13 06:01:20;;;;;;;19.20;12.10;;;3.50;99.90;;;;;;5039886;28;20601;-76
2021/11/13 06:03:48;;;;;;;17.15;11.73;;;3.50;99.90;;;;;;5044505;28;20211;-78
2021/11/13 06:06:15;;;;;;;20.15;12.55;;;3.40;99.90;;;;;;5044906;28;20269;-78
2021/11/13 06:08:42;;;;;;;17.52;11.43;;;3.40;99.90;;;;;;5044781;28;20240;-76
2021/11/13 06:11:09;;;;;;;18.23;12.05;;;3.50;99.90;;;;;;5044149;28;20210;-76
2021/11/13 06:13:37;;;;;;;21.05;13.25;;;3.50;99.90;;;;;;5035721;28;20222;-77
2021/11/13 06:16:06;;;;;;;21.13;12.50;;;3.50;99.90;;;;;;5057445;28;20222;-76
2021/11/13 06:18:33;;;;;;;18.77;12.40;;;3.40;99.90;;;;;;5064753;28;20229;-75
2021/11/13 06:21:01;;;;;;;18.58;11.48;;;3.50;99.90;;;;;;5066617;28;20269;-76
2021/11/13 06:23:28;;;;;;;20.08;12.80;;;3.50;99.90;;;;;;5068067;28;20218;-77
2021/11/13 06:25:55;;;;;;;22.60;14.10;;;3.50;99.90;;;;;;5055470;28;20205;-76
2021/11/13 06:28:22;;;;;;;20.65;12.30;;;3.60;99.90;;;;;;5045412;28;20230;-76
2021/11/13 06:30:49;;;;;;;20.52;13.02;;;3.70;99.90;;;;;;5061301;28;20216;-77
2021/11/13 06:33:16;;;;;;;24.40;14.80;;;3.60;99.90;;;;;;5073781;28;20218;-76
2021/11/13 06:35:43;;;;;;;18.80;12.27;;;3.70;99.90;;;;;;5060860;28;20220;-76
2021/11/13 06:38:11;;;;;;;18.50;11.93;;;3.70;99.90;;;;;;5035678;28;20261;-76
2021/11/13 06:40:38;;;;;;;20.38;12.50;;;3.80;99.90;;;;;;5033744;28;20240;-76
2021/11/13 06:43:05;;;;;;;22.88;12.65;;;3.80;99.90;;;;;;5033644;28;20305;-77
2021/11/13 06:45:32;;;;;;;21.52;12.50;;;3.90;99.90;;;;;;5044145;28;20288;-76
2021/11/13 06:47:59;;;;;;;19.30;12.95;;;3.90;99.90;;;;;;5053291;28;20316;-76
2021/11/13 06:50:26;;;;;;;20.58;12.50;;;3.80;99.90;;;;;;5053121;28;20310;-76
2021/11/13 06:52:53;;;;;;;22.35;13.30;;;3.80;99.90;;;;;;5053844;28;20322;-76
2021/11/13 06:55:21;;;;;;;18.20;12.05;;;3.90;99.90;;;;;;5045301;28;20297;-77
2021/11/13 06:57:48;;;;;;;16.63;11.57;;;3.80;99.90;;;;;;5033079;28;20324;-76
2021/11/13 07:00:17;;;;;;;17.38;12.02;;;3.80;99.90;;;;;;5033552;28;20302;-75
2021/11/13 07:02:44;;;;;;;17.55;11.82;;;3.90;99.90;;;;;;5033221;28;20206;-76
2021/11/13 07:05:11;;;;;;;19.42;12.15;;;3.90;99.90;;;;;;5038844;28;20205;-75
2021/11/13 07:07:39;;;;;;;18.25;11.40;;;3.90;99.90;;;;;;5052848;28;20241;-76
2021/11/13 07:10:09;;;;;;;17.70;12.13;;;3.90;99.90;;;;;;5053592;28;20260;-76
2021/11/13 07:12:37;;;;;;;16.60;11.60;;;3.90;99.90;;;;;;5052766;28;20223;-76
2021/11/13 07:15:06;;;;;;;15.80;10.95;;;4.00;99.90;;;;;;5052211;28;20335;-76
2021/11/13 07:17:33;;;;;;;21.75;12.95;;;4.00;99.90;;;;;;5052208;28;20324;-76
2021/11/13 07:20:00;;;;;;;15.13;10.77;;;4.10;99.90;;;;;;5012678;28;20691;-76
2021/11/13 07:22:27;;;;;;;18.05;10.95;;;4.10;99.90;;;;;;5013051;28;20557;-76
2021/11/13 07:24:55;;;;;;;17.27;10.90;;;4.20;99.90;;;;;;5013279;28;20231;-76
2021/11/13 07:27:22;;;;;;;18.35;12.10;;;4.20;99.90;;;;;;5013358;28;20305;-76
2021/11/13 07:29:59;;;;;;;17.33;11.30;;;4.30;99.90;;;;;;5013015;28;20231;-75
2021/11/13 07:32:27;;;;;;;16.23;11.02;;;4.40;99.90;;;;;;5013947;28;20264;-75
2021/11/13 07:34:54;;;;;;;17.60;10.23;;;4.40;99.90;;;;;;5033030;28;20237;-76
2021/11/13 07:37:21;;;;;;;16.90;11.10;;;4.50;99.90;;;;;;5033127;28;20716;-76
2021/11/13 07:39:48;;;;;;;25.95;14.10;;;4.70;99.90;;;;;;5032771;28;20250;-76
2021/11/13 07:42:15;;;;;;;17.60;11.65;;;4.80;99.90;;;;;;5032701;28;20714;-75
2021/11/13 07:44:42;;;;;;;20.45;12.63;;;4.90;99.90;;;;;;5033007;28;20242;-75
2021/11/13 07:47:10;;;;;;;18.77;11.45;;;5.00;99.90;;;;;;5045616;28;20198;-76
2021/11/13 07:49:37;;;;;;;19.20;12.73;;;5.10;99.90;;;;;;5052582;28;20229;-75
2021/11/13 07:52:05;;;;;;;21.45;12.43;;;5.20;99.90;;;;;;5053327;28;20210;-75
2021/11/13 07:54:33;;;;;;;18.35;10.15;;;5.30;99.40;;;;;;5053743;28;20289;-76
2021/11/13 07:57:00;;;;;;;15.43;10.68;;;5.40;98.40;;;;;;5042516;28;20711;-75
2021/11/13 07:59:27;;;;;;;15.10;10.85;;;5.40;97.20;;;;;;5033322;28;20231;-76
2021/11/13 08:01:54;;;;;;;17.05;11.48;;;5.10;96.30;;;;;;5042354;28;20204;-77
2021/11/13 08:04:22;;;;;;;19.25;13.00;;;5.10;98.20;;;;;;5052457;28;20206;-76
2021/11/13 08:06:49;;;;;;;16.75;12.65;;;5.20;98.40;;;;;;5052806;28;20293;-76
2021/11/13 08:09:16;;;;;;;24.52;15.00;;;5.20;98.30;;;;;;5053830;28;20234;-76
2021/11/13 08:11:43;;;;;;;16.65;12.40;;;5.10;98.40;;;;;;5054798;28;20609;-77
2021/11/13 08:14:10;;;;;;;20.70;13.32;;;5.20;99.00;;;;;;5055944;28;20260;-76
2021/11/13 08:16:37;;;;;;;22.60;13.25;;;5.30;99.40;;;;;;5053702;28;20520;-76
2021/11/13 08:19:04;;;;;;;18.77;13.43;;;5.30;99.50;;;;;;5046341;28;20708;-76
2021/11/13 08:21:32;;;;;;;21.35;14.18;;;5.40;99.50;;;;;;5050925;28;20331;-76
2021/11/13 08:23:59;;;;;;;19.40;12.70;;;5.50;99.60;;;;;;5042423;28;20671;-76
2021/11/13 08:26:26;;;;;;;23.17;13.70;;;5.50;99.20;;;;;;5040752;28;20207;-75
2021/11/13 08:28:53;;;;;;;20.70;13.70;;;5.50;98.50;;;;;;5050242;28;20226;-76
2021/11/13 08:31:20;;;;;;;18.40;13.82;;;5.40;97.90;;;;;;5050257;28;20249;-76
2021/11/13 08:33:47;;;;;;;21.95;13.07;;;5.40;98.70;;;;;;5050701;28;20266;-75
2021/11/13 08:36:14;;;;;;;21.98;14.90;;;5.50;98.70;;;;;;5052599;28;20269;-75
2021/11/13 08:38:42;;;;;;;19.00;14.10;;;5.60;98.70;;;;;;5068692;28;20234;-75
2021/11/13 08:41:09;;;;;;;20.88;13.85;;;5.50;98.30;;;;;;5064763;28;20211;-75
2021/11/13 08:43:36;;;;;;;21.73;14.23;;;5.60;98.40;;;;;;5036919;28;20203;-75
2021/11/13 08:46:02;;;;;;;23.08;14.25;;;5.60;98.20;;;;;;5036655;28;20242;-77
2021/11/13 08:48:29;;;;;;;20.50;13.15;;;5.70;97.80;;;;;;5035678;28;20599;-78
2021/11/13 08:50:56;;;;;;;19.52;14.27;;;5.70;97.50;;;;;;5036483;28;20675;-76
2021/11/13 08:53:23;;;;;;;20.70;14.00;;;5.80;97.30;;;;;;5052110;28;20202;-76
2021/11/13 08:55:52;;;;;;;19.50;13.55;;;5.90;96.80;;;;;;5053543;28;21050;-78
2021/11/13 08:58:18;;;;;;;20.10;14.80;;;6.00;96.10;;;;;;5036052;28;20325;-77
2021/11/13 09:00:48;;;;;;;17.75;13.98;;;6.00;95.60;;;;;;5044436;28;20209;-78
2021/11/13 09:03:18;;;;;;;19.08;13.60;;;6.10;95.30;;;;;;5055880;28;20214;-77
2021/11/13 09:05:45;;;;;;;22.13;15.52;;;6.20;94.80;;;;;;5056084;28;20241;-77
2021/11/13 09:08:13;;;;;;;18.17;13.35;;;6.30;94.40;;;;;;5056422;28;20620;-77
2021/11/13 09:10:41;;;;;;;20.17;14.20;;;6.50;94.00;;;;;;5075587;28;20216;-77
2021/11/13 09:13:11;;;;;;;23.65;15.68;;;6.60;93.00;;;;;;5076548;28;20282;-77
2021/11/13 09:15:39;;;;;;;23.17;15.27;;;6.10;92.00;;;;;;5068390;28;20217;-77
2021/11/13 09:18:07;;;;;;;23.98;15.70;;;6.00;93.10;;;;;;5050366;28;20275;-78
2021/11/13 09:20:35;;;;;;;24.08;15.10;;;6.20;94.00;;;;;;5051829;28;20270;-76
2021/11/13 09:23:02;;;;;;;21.42;15.00;;;6.40;93.40;;;;;;5049689;28;20212;-77
2021/11/13 09:25:29;;;;;;;24.30;15.38;;;6.60;93.10;;;;;;5047582;28;20221;-77
2021/11/13 09:27:58;;;;;;;20.40;13.30;;;6.60;92.20;;;;;;5038746;28;20257;-77
2021/11/13 09:30:31;;;;;;;23.05;15.00;;;6.80;91.70;;;;;;5036151;28;20690;-78
2021/11/13 09:32:58;;;;;;;21.80;15.70;;;6.90;90.90;;;;;;5039116;28;20194;-78
2021/11/13 09:35:25;;;;;;;22.98;16.05;;;7.00;90.60;;;;;;5055801;28;20545;-79
2021/11/13 09:37:52;;;;;;;21.67;15.85;;;6.90;90.20;;;;;;5056446;28;20578;-77
2021/11/13 09:40:22;;;;;;;21.10;14.73;;;6.90;91.10;;;;;;5056304;28;20206;-77
2021/11/13 09:42:52;;;;;;;21.45;15.90;;;7.00;91.10;;;;;;5037023;28;20294;-77
2021/11/13 09:45:19;;;;;;;21.27;15.38;;;7.10;91.00;;;;;;5034196;28;20221;-78
2021/11/13 09:47:50;;;;;;;23.67;15.77;;;7.20;90.90;;;;;;5034204;28;20199;-77
2021/11/13 09:50:20;;;;;;;25.77;17.13;;;7.10;91.50;;;;;;5033982;28;20634;-76
2021/11/13 09:52:47;;;;;;;25.35;16.08;;;7.20;92.00;;;;;;5051872;28;20280;-76
2021/11/13 09:55:18;;;;;;;22.33;15.32;;;7.20;92.20;;;;;;5040402;28;20203;-77
2021/11/13 09:57:45;;;;;;;21.73;15.85;;;7.20;92.50;;;;;;5033828;28;20310;-77
2021/11/13 10:00:16;;;;;;;22.95;16.27;;;7.30;92.50;;;;;;5045956;28;20198;-78
2021/11/13 10:02:43;;;;;;;20.73;16.42;;;7.40;92.60;;;;;;5054105;28;20649;-77
2021/11/13 10:05:12;;;;;;;21.27;15.23;;;7.50;92.10;;;;;;5041671;28;20207;-77
2021/11/13 10:07:39;;;;;;;23.45;15.23;;;7.60;91.70;;;;;;5034401;28;20309;-77
2021/11/13 10:10:09;;;;;;;23.30;15.48;;;7.70;91.40;;;;;;5048261;28;20194;-78
2021/11/13 10:12:37;;;;;;;19.77;15.05;;;7.70;90.80;;;;;;5053058;28;20222;-77
2021/11/13 10:15:25;;;;;;;24.40;16.13;;;7.70;90.90;;;;;;5047445;28;20616;-78
2021/11/13 10:18:09;;;;;;;19.85;15.45;;;7.60;91.10;;;;;;5034095;28;20222;-79
2021/11/13 10:20:41;;;;;;;25.13;16.35;;;7.60;92.30;;;;;;5033252;28;20724;-77
2021/11/13 10:23:08;;;;;;;20.85;15.52;;;7.70;92.70;;;;;;5033786;28;20298;-77
2021/11/13 10:25:35;;;;;;;23.90;16.40;;;7.80;92.90;;;;;;5033141;28;20286;-76
2021/11/13 10:28:14;;;;;;;22.02;15.98;;;7.80;92.70;;;;;;5033610;28;20219;-77
2021/11/13 10:30:43;;;;;;;24.05;15.82;;;7.90;92.70;;;;;;5033078;28;20195;-77
2021/11/13 10:33:10;;;;;;;22.20;15.35;;;7.90;93.00;;;;;;5033053;28;20207;-76
2021/11/13 10:35:49;;;;;;;21.35;15.35;;;8.10;92.80;;;;;;5036219;28;20207;-75
2021/11/13 10:38:18;;;;;;;17.58;14.65;;;8.20;92.50;;;;;;5037459;28;20655;-75
2021/11/13 10:40:53;;;;;;;20.95;15.52;;;8.10;92.40;;;;;;5032373;28;20233;-75
2021/11/13 10:43:21;;;;;;;20.85;15.38;;;8.10;92.80;;;;;;5031756;28;20209;-75
2021/11/13 10:45:59;;;;;;;22.33;16.38;;;8.10;93.70;;;;;;5045351;28;20205;-76
2021/11/13 10:48:26;;;;;;;20.55;15.23;;;8.30;94.10;;;;;;5042142;28;20764;-76
2021/11/13 10:51:02;;;;;;;20.08;15.32;;;8.20;93.90;;;;;;5032112;28;20242;-76
2021/11/13 10:53:31;;;;;;;20.25;15.75;;;8.40;94.40;;;;;;5032833;28;20571;-76
2021/11/13 10:56:04;;;;;;;21.08;15.88;;;8.50;94.70;;;;;;5034565;28;20207;-77
2021/11/13 10:58:33;;;;;;;20.95;15.02;;;8.50;94.30;;;;;;5033937;28;20288;-77
2021/11/13 11:01:02;;;;;;;21.77;14.85;;;8.40;94.70;;;;;;5033540;28;20320;-76
2021/11/13 11:03:33;;;;;;;17.98;15.15;;;8.30;95.40;;;;;;5032165;28;20277;-78
2021/11/13 11:06:01;;;;;;;18.17;14.15;;;8.30;96.50;;;;;;5034780;28;20267;-76
2021/11/13 11:08:29;;;;;;;17.45;13.40;;;8.40;97.50;;;;;;5041078;28;20230;-75
2021/11/13 11:10:57;;;;;;;17.23;13.85;;;8.40;97.70;;;;;;5043563;28;20202;-77
2021/11/13 11:13:43;;;;;;;17.95;13.52;;;8.40;98.20;;;;;;5035448;28;20191;-76
2021/11/13 11:16:30;;;;;;;19.08;14.65;;;8.50;98.80;;;;;;5033162;28;20289;-76
2021/11/13 11:19:00;;;;;;;19.80;13.90;;;8.50;98.80;;;;;;5033540;28;20472;-76
2021/11/13 11:22:04;;;;;;;38.58;14.75;;;8.50;98.70;;;;;;5022299;28;20224;-76
2021/11/13 11:24:35;;;;;;;22.10;14.00;;;8.40;98.70;;;;;;5044686;28;20293;-77
2021/11/13 11:27:08;;;;;;;17.98;13.85;;;8.40;99.10;;;;;;5035404;28;20249;-76
2021/11/13 11:29:43;;;;;;;19.38;15.02;;;8.40;99.90;;;;;;5034330;28;20223;-76
2021/11/13 11:32:14;;;;;;;21.85;13.95;;;8.50;99.90;;;;;;5042817;28;20589;-76
2021/11/13 11:34:43;;;;;;;25.88;14.35;;;8.60;99.90;;;;;;5043901;28;20580;-78
2021/11/13 11:37:14;;;;;;;22.08;13.77;;;8.60;99.90;;;;;;5030747;28;20253;-78
2021/11/13 11:39:43;;;;;;;17.85;13.50;;;8.50;99.90;;;;;;5031806;28;20223;-77
2021/11/13 11:42:11;;;;;;;17.58;13.48;;;8.50;99.90;;;;;;5032446;28;20286;-77
2021/11/13 11:44:40;;;;;;;18.98;12.95;;;8.50;99.90;;;;;;5032031;28;20246;-77
2021/11/13 11:47:13;;;;;;;25.30;13.73;;;8.50;99.90;;;;;;5028105;28;20215;-76
2021/11/13 11:49:43;;;;;;;17.45;14.02;;;8.50;99.90;;;;;;5040983;28;20218;-77
2021/11/13 11:52:14;;;;;;;25.58;14.60;;;8.50;99.90;;;;;;5031722;28;20211;-79
2021/11/13 11:54:41;;;;;;;18.98;14.10;;;8.50;99.90;;;;;;5031618;28;20224;-77
2021/11/13 11:57:08;;;;;;;20.17;13.68;;;8.60;99.90;;;;;;5034487;28;20199;-77
2021/11/13 11:59:37;;;;;;;24.20;14.45;;;8.70;99.90;;;;;;5032136;28;20223;-76
2021/11/13 12:02:10;;;;;;;17.90;14.23;;;8.80;99.90;;;;;;5032011;28;20210;-76
2021/11/13 12:04:37;;;;;;;17.65;13.70;;;8.90;99.90;;;;;;5031451;28;20223;-76
2021/11/13 12:07:07;;;;;;;17.73;13.35;;;8.80;99.90;;;;;;5032874;28;20203;-77
2021/11/13 12:09:54;;;;;;;18.60;13.75;;;8.90;99.90;;;;;;5032744;28;20313;-76
2021/11/13 12:12:21;;;;;;;17.42;13.68;;;9.10;99.90;;;;;;5029023;28;20303;-77
2021/11/13 12:14:48;;;;;;;13.77;12.15;;;9.30;99.90;;;;;;5021680;28;20232;-77
2021/11/13 12:17:28;;;;;;;19.10;12.85;;;9.40;99.90;;;;;;5031258;28;20218;-79
2021/11/13 12:20:18;;;;;;;15.63;12.73;;;9.50;99.90;;;;;;5030960;28;20230;-75
2021/11/13 12:22:49;;;;;;;16.30;13.05;;;9.50;99.90;;;;;;5032161;28;20196;-76
2021/11/13 12:25:19;;;;;;;17.08;13.35;;;9.50;99.90;;;;;;5035104;28;20664;-77
2021/11/13 12:28:05;;;;;;;15.10;12.55;;;9.60;99.90;;;;;;5030794;28;20735;-78
2021/11/13 12:30:43;;;;;;;19.50;12.98;;;9.70;99.90;;;;;;5032518;28;20192;-77
2021/11/13 12:33:44;;;;;;;16.30;12.75;;;9.70;99.90;;;;;;5018569;28;20216;-77
2021/11/13 12:36:16;;;;;;;14.93;12.00;;;9.70;99.90;;;;;;5030309;28;20222;-76
2021/11/13 12:38:45;;;;;;;14.27;12.30;;;9.70;99.90;;;;;;5034757;28;20664;-77
2021/11/13 12:41:16;;;;;;;18.48;13.20;;;9.70;99.90;;;;;;5037640;28;20214;-77
2021/11/13 12:44:03;;;;;;;15.65;12.00;;;9.70;99.90;;;;;;5032415;28;20207;-76
2021/11/13 12:46:34;;;;;;;14.70;11.80;;;9.70;99.90;;;;;;5031416;28;20654;-77